sensor_id;sensor_type;location;lat;lon;timestamp;temperature;humidity
7842;DHT22;3966;51.052;13.820;2023-04-01T00:00:44;10.90;99.90
7842;DHT22;3966;51.052;13.820;2023-04-01T00:03:11;10.80;99.90
7842;DHT22;3966;51.052;13.820;2023-04-01T00:05:36;10.80;99.90
7842;DHT22;3966;51.052;13.820;2023-04-01T00:08:02;10.80;99.90
7842;DHT22;3966;51.052;13.820;2023-04-01T00:10:28;10.70;99.90
7842;DHT22;3966;51.052;13.820;2023-04-01T00:12:53;10.60;99.90
7842;DHT22;3966;51.052;13.820;2023-04-01T00:15:19;10.60;99.90
7842;DHT22;3966;51.052;13.820;2023-04-01T00:17:45;10.60;99.90
7842;DHT22;3966;51.052;13.820;2023-04-01T00:20:11;10.60;99.90
7842;DHT22;3966;51.052;13.820;2023-04-01T00:22:37;10.50;99.90
7842;DHT22;3966;51.052;13.820;2023-04-01T00:25:04;10.50;99.90
7842;DHT22;3966;51.052;13.820;2023-04-01T00:27:30;10.50;99.90
7842;DHT22;3966;51.052;13.820;2023-04-01T00:29:55;10.50;99.90
7842;DHT22;3966;51.052;13.820;2023-04-01T00:32:21;10.50;99.90
7842;DHT22;3966;51.052;13.820;2023-04-01T00:34:50;10.60;99.90
7842;DHT22;3966;51.052;13.820;2023-04-01T00:37:17;10.50;99.90
7842;DHT22;3966;51.052;13.820;2023-04-01T00:39:43;10.50;99.90
7842;DHT22;3966;51.052;13.820;2023-04-01T00:42:10;10.60;99.90
7842;DHT22;3966;51.052;13.820;2023-04-01T00:44:37;10.60;99.90
7842;DHT22;3966;51.052;13.820;2023-04-01T00:47:03;10.60;99.90
7842;DHT22;3966;51.052;13.820;2023-04-01T00:49:45;10.60;99.90
7842;DHT22;3966;51.052;13.820;2023-04-01T00:52:15;10.60;99.90
7842;DHT22;3966;51.052;13.820;2023-04-01T00:54:45;10.60;99.90
7842;DHT22;3966;51.052;13.820;2023-04-01T00:57:25;10.60;99.90
7842;DHT22;3966;51.052;13.820;2023-04-01T00:59:54;10.60;99.90
7842;DHT22;3966;51.052;13.820;2023-04-01T01:02:20;10.60;99.90
7842;DHT22;3966;51.052;13.820;2023-04-01T01:04:46;10.60;99.90
7842;DHT22;3966;51.052;13.820;2023-04-01T01:24:07;10.50;99.90
7842;DHT22;3966;51.052;13.820;2023-04-01T01:27:08;10.60;99.90
7842;DHT22;3966;51.052;13.820;2023-04-01T01:30:03;10.60;99.90
7842;DHT22;3966;51.052;13.820;2023-04-01T01:38:11;10.60;99.90
7842;DHT22;3966;51.052;13.820;2023-04-01T01:40:42;10.60;99.90
7842;DHT22;3966;51.052;13.820;2023-04-01T01:43:12;10.60;99.90
7842;DHT22;3966;51.052;13.820;2023-04-01T01:45:45;10.60;99.90
7842;DHT22;3966;51.052;13.820;2023-04-01T01:48:12;10.70;99.90
7842;DHT22;3966;51.052;13.820;2023-04-01T01:50:38;10.70;99.90
7842;DHT22;3966;51.052;13.820;2023-04-01T01:53:10;10.70;99.90
7842;DHT22;3966;51.052;13.820;2023-04-01T01:55:42;10.70;99.90
7842;DHT22;3966;51.052;13.820;2023-04-01T02:00:51;10.70;99.90
7842;DHT22;3966;51.052;13.820;2023-04-01T02:03:20;10.60;99.90
7842;DHT22;3966;51.052;13.820;2023-04-01T02:05:47;10.60;99.90
7842;DHT22;3966;51.052;13.820;2023-04-01T02:08:16;10.60;99.90
7842;DHT22;3966;51.052;13.820;2023-04-01T02:10:50;10.60;99.90
7842;DHT22;3966;51.052;13.820;2023-04-01T02:13:24;10.60;99.90
7842;DHT22;3966;51.052;13.820;2023-04-01T02:15:55;10.60;99.90
7842;DHT22;3966;51.052;13.820;2023-04-01T02:18:22;10.60;99.90
7842;DHT22;3966;51.052;13.820;2023-04-01T02:20:48;10.60;99.90
7842;DHT22;3966;51.052;13.820;2023-04-01T02:23:14;10.60;99.90
7842;DHT22;3966;51.052;13.820;2023-04-01T02:25:41;10.60;99.90
7842;DHT22;3966;51.052;13.820;2023-04-01T02:28:08;10.60;99.90
7842;DHT22;3966;51.052;13.820;2023-04-01T02:30:36;10.60;99.90
7842;DHT22;3966;51.052;13.820;2023-04-01T02:33:05;10.60;99.90
7842;DHT22;3966;51.052;13.820;2023-04-01T02:35:33;10.60;99.90
7842;DHT22;3966;51.052;13.820;2023-04-01T02:38:00;10.60;99.90
7842;DHT22;3966;51.052;13.820;2023-04-01T02:40:27;10.60;99.90
7842;DHT22;3966;51.052;13.820;2023-04-01T02:42:52;10.60;99.90
7842;DHT22;3966;51.052;13.820;2023-04-01T02:45:18;10.70;99.90
7842;DHT22;3966;51.052;13.820;2023-04-01T02:47:43;10.60;99.90
7842;DHT22;3966;51.052;13.820;2023-04-01T02:50:09;10.70;99.90
7842;DHT22;3966;51.052;13.820;2023-04-01T02:52:35;10.70;99.90
7842;DHT22;3966;51.052;13.820;2023-04-01T02:55:02;10.60;99.90
7842;DHT22;3966;51.052;13.820;2023-04-01T02:57:27;10.70;99.90
7842;DHT22;3966;51.052;13.820;2023-04-01T02:59:54;10.60;99.90
7842;DHT22;3966;51.052;13.820;2023-04-01T03:02:20;10.70;99.90
7842;DHT22;3966;51.052;13.820;2023-04-01T03:04:45;10.60;99.90
7842;DHT22;3966;51.052;13.820;2023-04-01T03:07:11;10.70;99.90
7842;DHT22;3966;51.052;13.820;2023-04-01T03:09:38;10.70;99.90
7842;DHT22;3966;51.052;13.820;2023-04-01T03:12:03;10.60;99.90
7842;DHT22;3966;51.052;13.820;2023-04-01T03:14:29;10.60;99.90
7842;DHT22;3966;51.052;13.820;2023-04-01T03:16:55;10.60;99.90
7842;DHT22;3966;51.052;13.820;2023-04-01T03:19:20;10.60;99.90
7842;DHT22;3966;51.052;13.820;2023-04-01T03:21:46;10.60;99.90
7842;DHT22;3966;51.052;13.820;2023-04-01T03:24:12;10.60;99.90
7842;DHT22;3966;51.052;13.820;2023-04-01T03:26:37;10.60;99.90
7842;DHT22;3966;51.052;13.820;2023-04-01T03:29:03;10.60;99.90
7842;DHT22;3966;51.052;13.820;2023-04-01T03:31:29;10.60;99.90
7842;DHT22;3966;51.052;13.820;2023-04-01T03:33:54;10.60;99.90
7842;DHT22;3966;51.052;13.820;2023-04-01T03:36:20;10.60;99.90
7842;DHT22;3966;51.052;13.820;2023-04-01T03:38:47;10.60;99.90
7842;DHT22;3966;51.052;13.820;2023-04-01T03:41:14;10.60;99.90
7842;DHT22;3966;51.052;13.820;2023-04-01T03:43:40;10.60;99.90
7842;DHT22;3966;51.052;13.820;2023-04-01T03:46:05;10.60;99.90
7842;DHT22;3966;51.052;13.820;2023-04-01T03:48:31;10.60;99.90
7842;DHT22;3966;51.052;13.820;2023-04-01T03:50:57;10.60;99.90
7842;DHT22;3966;51.052;13.820;2023-04-01T03:53:22;10.60;99.90
7842;DHT22;3966;51.052;13.820;2023-04-01T03:55:48;10.60;99.90
7842;DHT22;3966;51.052;13.820;2023-04-01T03:58:16;10.50;99.90
7842;DHT22;3966;51.052;13.820;2023-04-01T04:00:42;10.50;99.90
7842;DHT22;3966;51.052;13.820;2023-04-01T04:03:07;10.50;99.90
7842;DHT22;3966;51.052;13.820;2023-04-01T04:05:33;10.50;99.90
7842;DHT22;3966;51.052;13.820;2023-04-01T04:07:59;10.60;99.90
7842;DHT22;3966;51.052;13.820;2023-04-01T04:10:24;10.50;99.90
7842;DHT22;3966;51.052;13.820;2023-04-01T04:12:51;10.50;99.90
7842;DHT22;3966;51.052;13.820;2023-04-01T04:15:17;10.60;99.90
7842;DHT22;3966;51.052;13.820;2023-04-01T04:17:44;10.50;99.90
7842;DHT22;3966;51.052;13.820;2023-04-01T04:20:10;10.60;99.90
7842;DHT22;3966;51.052;13.820;2023-04-01T04:22:36;10.60;99.90
7842;DHT22;3966;51.052;13.820;2023-04-01T04:25:01;10.60;99.90
7842;DHT22;3966;51.052;13.820;2023-04-01T04:27:27;10.60;99.90
7842;DHT22;3966;51.052;13.820;2023-04-01T04:29:52;10.50;99.90
7842;DHT22;3966;51.052;13.820;2023-04-01T04:32:18;10.60;99.90
7842;DHT22;3966;51.052;13.820;2023-04-01T04:34:44;10.60;99.90
7842;DHT22;3966;51.052;13.820;2023-04-01T04:37:09;10.60;99.90
7842;DHT22;3966;51.052;13.820;2023-04-01T04:39:35;10.60;99.90
7842;DHT22;3966;51.052;13.820;2023-04-01T04:42:00;10.60;99.90
7842;DHT22;3966;51.052;13.820;2023-04-01T04:44:26;10.60;99.90
7842;DHT22;3966;51.052;13.820;2023-04-01T04:46:52;10.70;99.90
7842;DHT22;3966;51.052;13.820;2023-04-01T04:49:17;10.70;99.90
7842;DHT22;3966;51.052;13.820;2023-04-01T04:51:44;10.70;99.90
7842;DHT22;3966;51.052;13.820;2023-04-01T04:54:09;10.70;99.90
7842;DHT22;3966;51.052;13.820;2023-04-01T04:56:35;10.60;99.90
7842;DHT22;3966;51.052;13.820;2023-04-01T04:59:01;10.60;99.90
7842;DHT22;3966;51.052;13.820;2023-04-01T05:01:27;10.70;99.90
7842;DHT22;3966;51.052;13.820;2023-04-01T05:03:53;10.70;99.90
7842;DHT22;3966;51.052;13.820;2023-04-01T05:06:20;10.70;99.90
7842;DHT22;3966;51.052;13.820;2023-04-01T05:08:46;10.70;99.90
7842;DHT22;3966;51.052;13.820;2023-04-01T05:11:13;10.70;99.90
7842;DHT22;3966;51.052;13.820;2023-04-01T05:13:40;10.70;99.90
7842;DHT22;3966;51.052;13.820;2023-04-01T05:16:12;10.80;99.90
7842;DHT22;3966;51.052;13.820;2023-04-01T05:18:38;10.80;99.90
7842;DHT22;3966;51.052;13.820;2023-04-01T05:21:04;10.70;99.90
7842;DHT22;3966;51.052;13.820;2023-04-01T05:23:31;10.80;99.90
7842;DHT22;3966;51.052;13.820;2023-04-01T05:25:57;10.70;99.90
7842;DHT22;3966;51.052;13.820;2023-04-01T05:28:23;10.70;99.90
7842;DHT22;3966;51.052;13.820;2023-04-01T05:30:49;10.70;99.90
7842;DHT22;3966;51.052;13.820;2023-04-01T05:33:15;10.60;99.90
7842;DHT22;3966;51.052;13.820;2023-04-01T05:35:40;10.70;99.90
7842;DHT22;3966;51.052;13.820;2023-04-01T05:38:07;10.70;99.90
7842;DHT22;3966;51.052;13.820;2023-04-01T05:40:33;10.70;99.90
7842;DHT22;3966;51.052;13.820;2023-04-01T05:42:59;10.70;99.90
7842;DHT22;3966;51.052;13.820;2023-04-01T05:45:26;10.70;99.90
7842;DHT22;3966;51.052;13.820;2023-04-01T05:47:52;10.70;99.90
7842;DHT22;3966;51.052;13.820;2023-04-01T05:50:18;10.70;99.90
7842;DHT22;3966;51.052;13.820;2023-04-01T05:52:43;10.70;99.90
7842;DHT22;3966;51.052;13.820;2023-04-01T05:55:10;10.70;99.90
7842;DHT22;3966;51.052;13.820;2023-04-01T05:57:36;10.70;99.90
7842;DHT22;3966;51.052;13.820;2023-04-01T06:00:02;10.70;99.90
7842;DHT22;3966;51.052;13.820;2023-04-01T06:02:28;10.70;99.90
7842;DHT22;3966;51.052;13.820;2023-04-01T06:07:36;10.70;99.90
7842;DHT22;3966;51.052;13.820;2023-04-01T06:10:02;10.70;99.90
7842;DHT22;3966;51.052;13.820;2023-04-01T06:12:38;10.80;99.90
7842;DHT22;3966;51.052;13.820;2023-04-01T06:33:04;10.80;99.90
7842;DHT22;3966;51.052;13.820;2023-04-01T06:37:59;10.90;99.90
7842;DHT22;3966;51.052;13.820;2023-04-01T06:47:12;11.00;99.90
7842;DHT22;3966;51.052;13.820;2023-04-01T06:52:22;11.10;99.90
7842;DHT22;3966;51.052;13.820;2023-04-01T06:55:00;11.20;99.90
7842;DHT22;3966;51.052;13.820;2023-04-01T06:59:57;11.30;99.90
7842;DHT22;3966;51.052;13.820;2023-04-01T07:02:43;11.30;99.90
7842;DHT22;3966;51.052;13.820;2023-04-01T07:05:14;11.30;99.90
7842;DHT22;3966;51.052;13.820;2023-04-01T07:10:21;11.40;99.90
7842;DHT22;3966;51.052;13.820;2023-04-01T07:12:57;11.40;99.90
7842;DHT22;3966;51.052;13.820;2023-04-01T07:17:57;11.40;99.90
7842;DHT22;3966;51.052;13.820;2023-04-01T07:23:39;11.40;99.90
7842;DHT22;3966;51.052;13.820;2023-04-01T07:26:06;11.40;99.90
7842;DHT22;3966;51.052;13.820;2023-04-01T07:28:36;11.40;99.90
7842;DHT22;3966;51.052;13.820;2023-04-01T07:33:46;11.50;99.90
7842;DHT22;3966;51.052;13.820;2023-04-01T07:39:15;11.60;99.90
7842;DHT22;3966;51.052;13.820;2023-04-01T07:42:01;11.60;99.90
7842;DHT22;3966;51.052;13.820;2023-04-01T07:50:49;11.70;99.90
7842;DHT22;3966;51.052;13.820;2023-04-01T08:07:40;11.50;99.90
7842;DHT22;3966;51.052;13.820;2023-04-01T08:10:19;11.60;99.90
7842;DHT22;3966;51.052;13.820;2023-04-01T08:15:56;11.60;99.90
7842;DHT22;3966;51.052;13.820;2023-04-01T08:21:01;11.60;99.90
7842;DHT22;3966;51.052;13.820;2023-04-01T08:23:33;11.60;99.90
7842;DHT22;3966;51.052;13.820;2023-04-01T08:26:49;11.60;99.90
7842;DHT22;3966;51.052;13.820;2023-04-01T08:34:05;11.80;99.90
7842;DHT22;3966;51.052;13.820;2023-04-01T08:36:44;11.90;99.90
7842;DHT22;3966;51.052;13.820;2023-04-01T08:39:18;12.00;99.90
7842;DHT22;3966;51.052;13.820;2023-04-01T08:52:36;12.10;99.90
7842;DHT22;3966;51.052;13.820;2023-04-01T08:58:05;12.00;99.90
7842;DHT22;3966;51.052;13.820;2023-04-01T09:00:43;12.00;99.90
7842;DHT22;3966;51.052;13.820;2023-04-01T09:03:30;12.00;99.90
7842;DHT22;3966;51.052;13.820;2023-04-01T09:06:29;11.90;99.90
7842;DHT22;3966;51.052;13.820;2023-04-01T09:28:42;12.20;99.90
7842;DHT22;3966;51.052;13.820;2023-04-01T09:31:19;12.30;99.90
7842;DHT22;3966;51.052;13.820;2023-04-01T09:33:58;12.30;99.90
7842;DHT22;3966;51.052;13.820;2023-04-01T09:37:04;12.10;99.90
7842;DHT22;3966;51.052;13.820;2023-04-01T09:42:29;12.10;99.90
7842;DHT22;3966;51.052;13.820;2023-04-01T09:45:00;12.20;99.90
7842;DHT22;3966;51.052;13.820;2023-04-01T09:53:35;12.30;99.90
7842;DHT22;3966;51.052;13.820;2023-04-01T10:01:42;12.40;99.90
7842;DHT22;3966;51.052;13.820;2023-04-01T10:30:35;12.30;99.90
7842;DHT22;3966;51.052;13.820;2023-04-01T10:32:36;12.40;99.90
7842;DHT22;3966;51.052;13.820;2023-04-01T10:41:22;12.60;99.90
7842;DHT22;3966;51.052;13.820;2023-04-01T10:50:14;12.50;99.90
7842;DHT22;3966;51.052;13.820;2023-04-01T10:52:57;12.40;99.90
7842;DHT22;3966;51.052;13.820;2023-04-01T11:01:55;12.50;99.90
7842;DHT22;3966;51.052;13.820;2023-04-01T11:24:58;12.60;99.90
7842;DHT22;3966;51.052;13.820;2023-04-01T11:29:59;13.10;99.90
7842;DHT22;3966;51.052;13.820;2023-04-01T11:51:15;13.00;99.90
7842;DHT22;3966;51.052;13.820;2023-04-01T11:57:31;12.90;99.90
7842;DHT22;3966;51.052;13.820;2023-04-01T12:00:02;12.90;99.90
7842;DHT22;3966;51.052;13.820;2023-04-01T12:06:11;12.70;99.90
7842;DHT22;3966;51.052;13.820;2023-04-01T12:14:27;12.90;99.90
7842;DHT22;3966;51.052;13.820;2023-04-01T12:17:36;12.60;99.90
7842;DHT22;3966;51.052;13.820;2023-04-01T12:20:28;12.90;99.90
7842;DHT22;3966;51.052;13.820;2023-04-01T12:46:26;12.80;99.90
7842;DHT22;3966;51.052;13.820;2023-04-01T13:09:32;12.80;99.90
7842;DHT22;3966;51.052;13.820;2023-04-01T13:20:24;13.30;99.90
7842;DHT22;3966;51.052;13.820;2023-04-01T13:29:08;14.40;99.90
7842;DHT22;3966;51.052;13.820;2023-04-01T13:42:29;13.40;99.90
7842;DHT22;3966;51.052;13.820;2023-04-01T13:45:11;13.50;99.90
7842;DHT22;3966;51.052;13.820;2023-04-01T14:01:13;13.90;99.90
7842;DHT22;3966;51.052;13.820;2023-04-01T14:12:06;14.30;99.90
7842;DHT22;3966;51.052;13.820;2023-04-01T14:29:44;13.70;99.90
7842;DHT22;3966;51.052;13.820;2023-04-01T14:35:25;13.60;99.90
7842;DHT22;3966;51.052;13.820;2023-04-01T14:51:39;13.70;99.90
7842;DHT22;3966;51.052;13.820;2023-04-01T14:56:47;13.60;99.90
7842;DHT22;3966;51.052;13.820;2023-04-01T15:04:52;13.50;99.90
7842;DHT22;3966;51.052;13.820;2023-04-01T15:15:56;13.70;99.90
7842;DHT22;3966;51.052;13.820;2023-04-01T15:24:06;14.30;99.90
7842;DHT22;3966;51.052;13.820;2023-04-01T15:43:49;13.60;99.90
7842;DHT22;3966;51.052;13.820;2023-04-01T15:46:48;13.70;99.90
7842;DHT22;3966;51.052;13.820;2023-04-01T15:55:00;13.60;99.90
7842;DHT22;3966;51.052;13.820;2023-04-01T16:00:31;13.40;99.90
7842;DHT22;3966;51.052;13.820;2023-04-01T16:03:27;13.20;99.90
7842;DHT22;3966;51.052;13.820;2023-04-01T16:20:02;13.10;99.90
7842;DHT22;3966;51.052;13.820;2023-04-01T16:22:38;13.00;99.90
7842;DHT22;3966;51.052;13.820;2023-04-01T16:30:40;12.70;99.90
7842;DHT22;3966;51.052;13.820;2023-04-01T16:33:19;12.70;99.90
7842;DHT22;3966;51.052;13.820;2023-04-01T16:35:58;12.70;99.90
7842;DHT22;3966;51.052;13.820;2023-04-01T16:41:38;12.60;99.90
7842;DHT22;3966;51.052;13.820;2023-04-01T16:44:26;12.70;99.90
7842;DHT22;3966;51.052;13.820;2023-04-01T16:46:58;12.70;99.90
7842;DHT22;3966;51.052;13.820;2023-04-01T16:55:11;12.50;99.90
7842;DHT22;3966;51.052;13.820;2023-04-01T17:00:03;12.40;99.90
7842;DHT22;3966;51.052;13.820;2023-04-01T17:02:43;12.40;99.90
7842;DHT22;3966;51.052;13.820;2023-04-01T17:05:13;12.50;99.90
7842;DHT22;3966;51.052;13.820;2023-04-01T17:26:46;12.30;99.90
7842;DHT22;3966;51.052;13.820;2023-04-01T17:32:09;12.20;99.90
7842;DHT22;3966;51.052;13.820;2023-04-01T17:38:13;12.10;99.90
7842;DHT22;3966;51.052;13.820;2023-04-01T17:46:34;11.90;99.90
7842;DHT22;3966;51.052;13.820;2023-04-01T18:09:00;11.50;99.90
7842;DHT22;3966;51.052;13.820;2023-04-01T18:11:43;11.40;99.90
7842;DHT22;3966;51.052;13.820;2023-04-01T18:19:36;11.30;99.90
7842;DHT22;3966;51.052;13.820;2023-04-01T18:22:28;11.30;99.90
7842;DHT22;3966;51.052;13.820;2023-04-01T18:24:57;11.20;99.90
7842;DHT22;3966;51.052;13.820;2023-04-01T18:27:36;11.20;99.90
7842;DHT22;3966;51.052;13.820;2023-04-01T18:30:16;11.20;99.90
7842;DHT22;3966;51.052;13.820;2023-04-01T18:44:29;11.10;99.90
7842;DHT22;3966;51.052;13.820;2023-04-01T18:52:25;11.00;99.90
7842;DHT22;3966;51.052;13.820;2023-04-01T19:00:34;10.90;99.90
7842;DHT22;3966;51.052;13.820;2023-04-01T19:03:23;10.90;99.90
7842;DHT22;3966;51.052;13.820;2023-04-01T19:05:53;11.00;99.90
7842;DHT22;3966;51.052;13.820;2023-04-01T19:08:35;11.00;99.90
7842;DHT22;3966;51.052;13.820;2023-04-01T19:11:30;11.00;99.90
7842;DHT22;3966;51.052;13.820;2023-04-01T19:19:21;11.10;99.90
7842;DHT22;3966;51.052;13.820;2023-04-01T19:22:01;11.00;99.90
7842;DHT22;3966;51.052;13.820;2023-04-01T19:27:49;10.80;99.90
7842;DHT22;3966;51.052;13.820;2023-04-01T19:30:31;10.70;99.90
7842;DHT22;3966;51.052;13.820;2023-04-01T19:36:07;10.70;99.90
7842;DHT22;3966;51.052;13.820;2023-04-01T19:38:38;10.70;99.90
7842;DHT22;3966;51.052;13.820;2023-04-01T19:41:30;10.60;99.90
7842;DHT22;3966;51.052;13.820;2023-04-01T19:46:46;10.60;99.90
7842;DHT22;3966;51.052;13.820;2023-04-01T20:03:23;10.60;99.90
7842;DHT22;3966;51.052;13.820;2023-04-01T20:16:12;10.40;99.90
7842;DHT22;3966;51.052;13.820;2023-04-01T20:18:52;10.40;99.90
7842;DHT22;3966;51.052;13.820;2023-04-01T20:21:41;10.50;99.90
7842;DHT22;3966;51.052;13.820;2023-04-01T20:26:42;10.50;99.90
7842;DHT22;3966;51.052;13.820;2023-04-01T20:37:49;10.40;99.90
7842;DHT22;3966;51.052;13.820;2023-04-01T20:40:34;10.40;99.90
7842;DHT22;3966;51.052;13.820;2023-04-01T20:46:05;10.30;99.90
7842;DHT22;3966;51.052;13.820;2023-04-01T20:48:58;10.30;99.90
7842;DHT22;3966;51.052;13.820;2023-04-01T20:51:30;10.30;99.90
7842;DHT22;3966;51.052;13.820;2023-04-01T20:59:25;10.30;99.90
7842;DHT22;3966;51.052;13.820;2023-04-01T21:12:48;10.20;99.90
7842;DHT22;3966;51.052;13.820;2023-04-01T21:21:45;10.30;99.90
7842;DHT22;3966;51.052;13.820;2023-04-01T21:49:32;10.20;99.90
7842;DHT22;3966;51.052;13.820;2023-04-01T21:57:38;10.30;99.90
7842;DHT22;3966;51.052;13.820;2023-04-01T22:00:17;10.30;99.90
7842;DHT22;3966;51.052;13.820;2023-04-01T22:17:35;10.20;99.90
7842;DHT22;3966;51.052;13.820;2023-04-01T22:20:47;10.10;99.90
7842;DHT22;3966;51.052;13.820;2023-04-01T22:22:55;10.10;99.90
7842;DHT22;3966;51.052;13.820;2023-04-01T22:28:07;10.10;99.90
7842;DHT22;3966;51.052;13.820;2023-04-01T22:30:43;10.00;99.90
7842;DHT22;3966;51.052;13.820;2023-04-01T22:47:10;10.00;99.90
7842;DHT22;3966;51.052;13.820;2023-04-01T22:49:50;9.90;99.90
7842;DHT22;3966;51.052;13.820;2023-04-01T22:54:52;9.90;99.90
7842;DHT22;3966;51.052;13.820;2023-04-01T23:00:39;9.80;99.90
7842;DHT22;3966;51.052;13.820;2023-04-01T23:06:02;9.60;99.90
7842;DHT22;3966;51.052;13.820;2023-04-01T23:14:23;9.40;99.90
7842;DHT22;3966;51.052;13.820;2023-04-01T23:26:09;9.40;99.90
7842;DHT22;3966;51.052;13.820;2023-04-01T23:28:45;9.40;99.90
7842;DHT22;3966;51.052;13.820;2023-04-01T23:31:36;9.20;99.90
7842;DHT22;3966;51.052;13.820;2023-04-01T23:36:41;9.10;99.90
7842;DHT22;3966;51.052;13.820;2023-04-01T23:39:25;9.10;99.90
7842;DHT22;3966;51.052;13.820;2023-04-01T23:41:55;8.90;99.90
7842;DHT22;3966;51.052;13.820;2023-04-01T23:44:24;8.80;99.90
7842;DHT22;3966;51.052;13.820;2023-04-01T23:46:51;8.80;99.90
7842;DHT22;3966;51.052;13.820;2023-04-01T23:49:38;8.80;99.90
7842;DHT22;3966;51.052;13.820;2023-04-01T23:52:13;8.90;99.90
7842;DHT22;3966;51.052;13.820;2023-04-01T23:55:02;8.90;99.90
7842;DHT22;3966;51.052;13.820;2023-04-01T23:57:34;8.80;99.90
